createdAt,value
2022-08-09T00:01:42.314Z,80.0
2022-08-09T00:06:49.479Z,80.1
2022-08-09T00:11:58.025Z,80.5
2022-08-09T00:17:11.281Z,80.3
2022-08-09T00:22:19.291Z,80.0
2022-08-09T00:27:33.973Z,80.4
2022-08-09T00:32:41.160Z,80.2
2022-08-09T00:37:48.987Z,80.3
2022-08-09T00:42:56.723Z,80.4
2022-08-09T00:48:04.089Z,80.4
2022-08-09T00:53:11.257Z,80.2
2022-08-09T00:58:19.101Z,80.1
2022-08-09T01:03:26.619Z,80.6
2022-08-09T01:08:33.499Z,80.1
2022-08-09T01:13:40.724Z,80.2
2022-08-09T01:18:48.521Z,80.5
2022-08-09T01:23:56.222Z,80.3
2022-08-09T01:29:12.541Z,80.5
2022-08-09T01:34:19.733Z,80.4
2022-08-09T01:39:27.647Z,80.4
2022-08-09T01:44:34.803Z,80.2
2022-08-09T01:49:42.568Z,80.3
2022-08-09T01:54:49.764Z,80.4
2022-08-09T02:00:05.274Z,80.4
2022-08-09T02:05:11.900Z,80.3
2022-08-09T02:10:18.878Z,80.6
2022-08-09T02:15:26.530Z,80.5
2022-08-09T02:20:33.491Z,80.4
2022-08-09T02:25:41.313Z,80.4
2022-08-09T02:30:48.553Z,80.2
2022-08-09T02:35:56.419Z,80.5
2022-08-09T02:41:04.289Z,80.5
2022-08-09T02:46:12.474Z,80.5
2022-08-09T02:51:27.582Z,80.0
2022-08-09T02:56:35.687Z,80.4
2022-08-09T03:01:43.686Z,80.2
2022-08-09T03:06:51.126Z,80.2
2022-08-09T03:12:04.060Z,80.3
2022-08-09T03:17:11.936Z,80.2
2022-08-09T03:22:20.685Z,80.3
2022-08-09T03:28:08.534Z,80.4
2022-08-09T03:33:16.668Z,80.0
2022-08-09T03:38:24.599Z,79.8
2022-08-09T03:43:39.099Z,80.1
2022-08-09T03:48:46.672Z,80.5
2022-08-09T03:53:53.856Z,80.0
2022-08-09T03:59:02.435Z,80.2
2022-08-09T04:04:10.964Z,80.4
2022-08-09T04:09:19.052Z,80.4
2022-08-09T04:14:26.936Z,80.3
2022-08-09T04:19:34.872Z,80.7
2022-08-09T04:24:42.503Z,80.4
2022-08-09T04:29:49.902Z,80.7
2022-08-09T04:34:58.140Z,80.8
2022-08-09T04:40:05.363Z,80.3
2022-08-09T04:45:13.111Z,80.9
2022-08-09T04:50:21.402Z,80.4
2022-08-09T04:55:29.429Z,80.5
2022-08-09T05:00:38.478Z,80.3
2022-08-09T05:05:46.731Z,80.5
2022-08-09T05:10:53.657Z,80.5
2022-08-09T05:16:02.005Z,80.5
2022-08-09T05:21:10.129Z,80.5
2022-08-09T05:26:18.973Z,80.6
2022-08-09T05:31:26.928Z,80.3
2022-08-09T05:36:34.132Z,79.9
2022-08-09T05:41:41.340Z,80.6
2022-08-09T05:46:49.173Z,80.2
2022-08-09T05:51:58.055Z,80.0
2022-08-09T05:57:05.669Z,80.6
2022-08-09T06:02:14.081Z,80.7
2022-08-09T06:07:21.946Z,80.6
2022-08-09T06:12:31.052Z,80.4
2022-08-09T06:17:38.809Z,80.4
2022-08-09T06:22:47.194Z,80.6
2022-08-09T06:27:54.457Z,80.5
2022-08-09T06:33:03.290Z,80.6
2022-08-09T06:38:10.934Z,80.9
2022-08-09T06:43:17.979Z,80.4
2022-08-09T06:48:25.180Z,80.2
2022-08-09T06:53:32.645Z,80.3
2022-08-09T06:58:39.890Z,80.2
2022-08-09T07:03:47.415Z,80.5
2022-08-09T07:08:54.912Z,80.1
2022-08-09T07:14:02.538Z,80.3
2022-08-09T07:19:09.029Z,80.3
2022-08-09T07:24:16.854Z,79.9
2022-08-09T07:29:24.406Z,80.3
2022-08-09T07:34:31.035Z,80.1
2022-08-09T07:39:39.850Z,79.9
2022-08-09T07:44:48.728Z,80.0
2022-08-09T07:49:56.056Z,80.2
2022-08-09T07:55:03.348Z,79.8
2022-08-09T08:00:11.735Z,79.4
2022-08-09T08:05:19.624Z,79.4
2022-08-09T08:10:32.681Z,79.4
2022-08-09T08:15:40.303Z,79.2
2022-08-09T08:20:47.777Z,79.2
2022-08-09T08:25:55.431Z,79.7
2022-08-09T08:31:02.637Z,80.0
2022-08-09T08:36:10.463Z,78.5
2022-08-09T08:41:18.024Z,79.1
2022-08-09T08:46:26.016Z,79.5
2022-08-09T08:51:34.617Z,79.3
2022-08-09T08:56:41.180Z,79.6
2022-08-09T09:01:49.528Z,79.5
2022-08-09T09:06:58.983Z,79.1
2022-08-09T09:12:05.652Z,79.3
2022-08-09T09:17:12.540Z,79.1
2022-08-09T09:22:20.641Z,79.6
2022-08-09T09:27:27.574Z,79.3
2022-08-09T09:32:36.474Z,79.2
2022-08-09T09:37:43.211Z,79.5
2022-08-09T09:42:51.189Z,79.3
2022-08-09T09:47:58.808Z,79.0
2022-08-09T09:53:07.255Z,79.3
2022-08-09T09:58:14.164Z,79.9
2022-08-09T10:03:21.216Z,79.8
2022-08-09T10:08:29.517Z,78.2
2022-08-09T10:13:36.855Z,79.1
2022-08-09T10:18:44.699Z,79.7
2022-08-09T10:23:52.921Z,79.6
2022-08-09T10:29:00.523Z,80.4
2022-08-09T10:34:06.936Z,79.1
2022-08-09T10:39:14.948Z,79.5
2022-08-09T10:44:23.276Z,79.4
2022-08-09T10:49:31.049Z,80.0
2022-08-09T10:54:37.012Z,79.2
2022-08-09T10:59:44.896Z,79.2
2022-08-09T11:04:51.517Z,79.8
2022-08-09T11:09:59.585Z,79.6
2022-08-09T11:15:06.566Z,79.2
2022-08-09T11:20:13.630Z,79.5
2022-08-09T11:25:21.239Z,79.9
2022-08-09T11:30:33.856Z,79.0
2022-08-09T11:35:40.029Z,80.0
2022-08-09T11:40:46.941Z,79.7
2022-08-09T11:45:54.179Z,80.2
2022-08-09T11:51:01.977Z,79.2
2022-08-09T11:56:09.965Z,79.6
2022-08-09T12:01:17.527Z,79.8
2022-08-09T12:06:25.478Z,79.8
2022-08-09T12:11:34.068Z,79.5
2022-08-09T12:16:41.050Z,80.1
2022-08-09T12:21:48.553Z,79.6
2022-08-09T12:26:55.584Z,79.5
2022-08-09T12:32:03.419Z,78.9
2022-08-09T12:37:10.621Z,79.9
2022-08-09T12:42:18.741Z,79.2
2022-08-09T12:47:27.689Z,78.5
2022-08-09T12:52:34.942Z,79.0
2022-08-09T12:57:42.089Z,79.5
2022-08-09T13:02:49.210Z,79.6
2022-08-09T13:07:57.523Z,79.4
2022-08-09T13:13:04.817Z,78.9
2022-08-09T13:18:13.070Z,79.4
2022-08-09T13:23:21.558Z,79.9
2022-08-09T13:28:28.401Z,79.1
2022-08-09T13:33:35.586Z,79.5
2022-08-09T13:38:43.633Z,79.1
2022-08-09T13:43:52.036Z,79.8
2022-08-09T13:48:58.678Z,79.7
2022-08-09T13:54:07.582Z,79.3
2022-08-09T13:59:15.619Z,79.3
2022-08-09T14:04:22.626Z,78.6
2022-08-09T14:09:31.117Z,79.6
2022-08-09T14:14:40.582Z,79.5
2022-08-09T14:19:48.056Z,79.7
2022-08-09T14:24:56.471Z,79.7
2022-08-09T14:30:04.136Z,78.9
2022-08-09T14:35:12.726Z,79.1
2022-08-09T14:40:19.497Z,79.8
2022-08-09T14:45:26.358Z,80.6
2022-08-09T14:50:34.963Z,79.8
2022-08-09T14:55:41.823Z,79.9
2022-08-09T15:00:49.027Z,80.1
2022-08-09T15:05:57.004Z,79.7
2022-08-09T15:11:05.193Z,80.0
2022-08-09T15:16:20.177Z,80.1
2022-08-09T15:21:29.546Z,79.7
2022-08-09T15:26:38.153Z,79.7
2022-08-09T15:31:46.566Z,79.5
2022-08-09T15:36:54.959Z,79.5
2022-08-09T15:42:01.473Z,78.5
2022-08-09T15:47:09.143Z,79.2
2022-08-09T15:52:17.371Z,79.6
2022-08-09T15:57:25.336Z,79.7
2022-08-09T16:02:32.702Z,79.5
2022-08-09T16:07:40.382Z,79.6
2022-08-09T16:12:48.442Z,79.7
2022-08-09T16:17:56.632Z,79.6
2022-08-09T16:23:04.474Z,80.1
2022-08-09T16:28:11.737Z,79.6
2022-08-09T16:33:19.307Z,79.7
2022-08-09T16:38:25.995Z,79.9
2022-08-09T16:43:32.699Z,79.8
2022-08-09T16:48:39.632Z,79.9
2022-08-09T16:53:48.045Z,79.9
2022-08-09T16:58:55.215Z,79.6
2022-08-09T17:04:02.381Z,79.8
2022-08-09T17:09:08.697Z,79.9
2022-08-09T17:14:16.648Z,79.8
2022-08-09T17:19:23.989Z,79.8
2022-08-09T17:24:30.301Z,80.0
2022-08-09T17:29:39.286Z,80.1
2022-08-09T17:34:47.429Z,80.2
2022-08-09T17:39:55.821Z,79.9
2022-08-09T17:45:03.794Z,80.3
2022-08-09T17:50:11.431Z,80.1
2022-08-09T17:55:20.053Z,80.2
2022-08-09T18:00:27.195Z,80.2
2022-08-09T18:05:35.435Z,80.2
2022-08-09T18:10:43.799Z,80.2
2022-08-09T18:15:51.256Z,80.1
2022-08-09T18:20:58.814Z,80.2
2022-08-09T18:26:06.648Z,80.2
2022-08-09T18:31:14.181Z,80.1
2022-08-09T18:36:23.129Z,80.0
2022-08-09T18:41:31.009Z,80.1
2022-08-09T18:46:37.692Z,80.3
2022-08-09T18:51:44.524Z,80.3
2022-08-09T18:56:51.782Z,80.2
2022-08-09T19:01:59.284Z,80.2
2022-08-09T19:07:07.671Z,80.2
2022-08-09T19:12:15.114Z,80.1
2022-08-09T19:17:23.283Z,80.2
2022-08-09T19:22:31.742Z,80.3
2022-08-09T19:27:39.199Z,80.1
2022-08-09T19:32:47.943Z,80.2
2022-08-09T19:37:56.017Z,80.2
2022-08-09T19:43:03.265Z,80.2
2022-08-09T19:48:10.863Z,80.3
2022-08-09T19:53:17.892Z,80.3
2022-08-09T19:58:25.017Z,80.2
2022-08-09T20:03:32.152Z,80.2
2022-08-09T20:08:39.949Z,80.3
2022-08-09T20:13:47.857Z,80.3
2022-08-09T20:18:54.934Z,80.3
2022-08-09T20:24:03.418Z,80.3
2022-08-09T20:29:09.969Z,80.4
2022-08-09T20:34:17.807Z,80.3
2022-08-09T20:39:26.174Z,80.3
2022-08-09T20:44:35.058Z,80.4
2022-08-09T20:49:42.295Z,80.4
2022-08-09T20:54:50.321Z,80.2
2022-08-09T21:00:00.199Z,80.2
2022-08-09T21:05:09.214Z,80.3
2022-08-09T21:10:17.681Z,80.2
2022-08-09T21:15:26.162Z,80.1
2022-08-09T21:20:33.484Z,80.3
2022-08-09T21:25:41.365Z,80.3
2022-08-09T21:30:49.503Z,80.1
2022-08-09T21:35:58.299Z,80.2
2022-08-09T21:41:06.158Z,80.4
2022-08-09T21:46:13.335Z,80.2
2022-08-09T21:51:21.109Z,80.3
2022-08-09T21:56:31.487Z,80.2
2022-08-09T22:01:41.170Z,80.1
2022-08-09T22:06:48.563Z,80.1
2022-08-09T22:11:56.598Z,80.0
2022-08-09T22:17:05.290Z,80.3
2022-08-09T22:22:13.652Z,80.1
2022-08-09T22:27:22.001Z,80.0
2022-08-09T22:32:30.357Z,80.2
2022-08-09T22:37:38.205Z,80.2
2022-08-09T22:42:45.847Z,80.2
2022-08-09T22:47:54.973Z,80.2
2022-08-09T22:53:03.364Z,80.1
2022-08-09T22:58:11.728Z,80.2
2022-08-09T23:03:21.593Z,80.3
2022-08-09T23:08:30.095Z,80.3
2022-08-09T23:13:38.469Z,80.2
2022-08-09T23:18:46.587Z,80.2
2022-08-09T23:23:53.821Z,80.2
2022-08-09T23:29:03.443Z,80.2
2022-08-09T23:34:10.812Z,80.2
2022-08-09T23:39:19.791Z,80.2
2022-08-09T23:44:27.890Z,80.3
2022-08-09T23:49:34.933Z,80.2
2022-08-09T23:54:42.729Z,80.4
2022-08-09T23:59:50.921Z,80.3
